首页
METAR-TAF:

METAR-TAF

机场 :

Tarvisio, 意大利

纬度: 46-30N, 经度: 013-35E, 海拔: 777米

当前天气观测

该预报发布于1小时和19分钟前的16:55 UTC
风速3节,风向西转西南
温度 24°C
湿度 65%
气压 1009 hPa
能见度10公里或以上
多云层高于3000英尺, 塔状积云.

METAR: LIVO 061655Z 25003KT 9999 BKN030TCU 24/17 Q1009 RMK BKN VIS MIN 9999

时间: 20:14 (18:14 UTC)


TAF: 丢失

超过4000个机场的气象观测和天气预报(METAR&TAF报告)。

可查询的气象台以黄色和红色小点在地图上表示。

将鼠标移到小点上方,可查看气象台名称。

然后点击查看天气观测和预报。

如需切换地图:点击带黑十字的绿色按钮放大地图;点击带横线的绿色按钮缩小地图;或者点击绿色箭头查看邻近地区的地图。


METAR-TAF: